createdAt,value
2023-03-22T00:00:33.869Z,11.07
2023-03-22T00:03:39.202Z,10.90
2023-03-22T00:06:42.035Z,10.91
2023-03-22T00:09:46.569Z,10.89
2023-03-22T00:12:49.252Z,10.82
2023-03-22T00:15:52.257Z,10.78
2023-03-22T00:18:55.204Z,10.79
2023-03-22T00:21:58.063Z,10.70
2023-03-22T00:25:02.235Z,10.72
2023-03-22T00:28:05.394Z,10.66
2023-03-22T00:31:08.352Z,10.61
2023-03-22T00:34:11.663Z,10.58
2023-03-22T00:37:16.374Z,10.50
2023-03-22T00:40:20.859Z,10.52
2023-03-22T00:43:23.571Z,10.48
2023-03-22T00:46:27.283Z,10.46
2023-03-22T00:49:31.206Z,10.39
2023-03-22T00:52:34.566Z,10.38
2023-03-22T00:55:38.674Z,10.37
2023-03-22T00:58:41.663Z,10.35
2023-03-22T01:01:44.823Z,10.33
2023-03-22T01:04:48.286Z,10.36
2023-03-22T01:07:51.715Z,10.40
2023-03-22T01:10:56.017Z,10.40
2023-03-22T01:13:59.693Z,10.43
2023-03-22T01:17:02.752Z,10.39
2023-03-22T01:20:06.951Z,10.34
2023-03-22T01:23:09.822Z,10.27
2023-03-22T01:26:13.933Z,10.27
2023-03-22T01:29:17.211Z,10.22
2023-03-22T01:32:19.880Z,10.21
2023-03-22T01:35:22.759Z,10.21
2023-03-22T01:38:25.824Z,10.25
2023-03-22T01:41:30.079Z,10.23
2023-03-22T01:44:33.422Z,10.18
2023-03-22T01:47:36.655Z,10.15
2023-03-22T01:50:42.566Z,10.24
2023-03-22T01:53:49.966Z,10.27
2023-03-22T01:56:54.264Z,10.19
2023-03-22T01:59:57.490Z,10.11
2023-03-22T02:03:00.813Z,10.11
2023-03-22T02:06:04.126Z,10.18
2023-03-22T02:09:08.115Z,10.15
2023-03-22T02:12:22.025Z,10.11
2023-03-22T02:15:31.025Z,10.08
2023-03-22T02:18:46.957Z,10.10
2023-03-22T02:22:22.904Z,10.09
2023-03-22T02:26:01.011Z,10.11
2023-03-22T02:29:12.733Z,10.05
2023-03-22T02:32:47.377Z,10.08
2023-03-22T02:36:01.664Z,10.12
2023-03-22T02:39:16.682Z,10.14
2023-03-22T02:42:37.274Z,10.04
2023-03-22T02:45:48.419Z,10.14
2023-03-22T02:48:58.402Z,10.14
2023-03-22T02:52:04.248Z,10.03
2023-03-22T02:55:13.075Z,10.04
2023-03-22T02:58:19.145Z,10.00
2023-03-22T03:01:27.886Z,9.96
2023-03-22T03:04:35.563Z,10.00
2023-03-22T03:07:39.775Z,9.92
2023-03-22T03:10:45.069Z,9.90
2023-03-22T03:13:49.192Z,9.94
2023-03-22T03:17:03.621Z,9.93
2023-03-22T03:20:24.651Z,9.84
2023-03-22T03:23:34.806Z,9.82
2023-03-22T03:26:47.232Z,9.84
2023-03-22T03:29:53.676Z,9.97
2023-03-22T03:33:01.055Z,10.10
2023-03-22T03:36:06.322Z,10.07
2023-03-22T03:39:13.720Z,9.96
2023-03-22T03:42:19.411Z,9.96
2023-03-22T03:45:23.208Z,10.06
2023-03-22T03:48:29.591Z,9.96
2023-03-22T03:51:34.530Z,9.96
2023-03-22T03:54:37.719Z,10.00
2023-03-22T03:57:41.912Z,9.97
2023-03-22T04:00:46.108Z,9.98
2023-03-22T04:03:50.673Z,9.88
2023-03-22T04:06:56.882Z,9.87
2023-03-22T04:09:59.657Z,9.94
2023-03-22T04:13:03.744Z,9.97
2023-03-22T04:16:07.453Z,10.04
2023-03-22T04:19:10.320Z,10.02
2023-03-22T04:22:14.913Z,10.08
2023-03-22T04:25:19.016Z,10.05
2023-03-22T04:28:23.905Z,9.99
2023-03-22T04:31:27.046Z,10.09
2023-03-22T04:34:29.890Z,10.07
2023-03-22T04:37:33.820Z,9.99
2023-03-22T04:40:38.791Z,9.98
2023-03-22T04:43:47.146Z,10.03
2023-03-22T04:46:49.979Z,10.05
2023-03-22T04:49:53.022Z,10.18
2023-03-22T04:52:55.774Z,10.07
2023-03-22T04:55:58.893Z,10.02
2023-03-22T04:59:03.514Z,10.14
2023-03-22T05:02:06.350Z,10.10
2023-03-22T05:05:09.309Z,10.04
2023-03-22T05:08:14.391Z,10.07
2023-03-22T05:11:19.414Z,10.02
2023-03-22T05:14:23.652Z,10.02
2023-03-22T05:17:26.543Z,10.07
2023-03-22T05:20:29.382Z,10.07
2023-03-22T05:23:32.202Z,10.06
2023-03-22T05:26:38.001Z,10.02
2023-03-22T05:29:45.205Z,10.04
2023-03-22T05:32:49.533Z,10.08
2023-03-22T05:35:52.579Z,10.02
2023-03-22T05:38:55.512Z,10.07
2023-03-22T05:41:58.233Z,10.10
2023-03-22T05:45:02.444Z,10.01
2023-03-22T05:48:05.410Z,10.14
2023-03-22T05:51:09.352Z,10.11
2023-03-22T05:54:12.158Z,10.07
2023-03-22T05:57:14.902Z,10.16
2023-03-22T06:00:20.303Z,10.09
2023-03-22T06:03:29.816Z,10.16
2023-03-22T06:06:48.186Z,10.10
2023-03-22T06:09:50.940Z,10.12
2023-03-22T06:12:54.234Z,10.12
2023-03-22T06:16:01.479Z,10.16
2023-03-22T06:19:04.372Z,10.25
2023-03-22T06:22:07.343Z,10.22
2023-03-22T06:25:11.848Z,10.21
2023-03-22T06:28:14.740Z,10.21
2023-03-22T06:31:18.891Z,10.14
2023-03-22T06:34:21.624Z,10.19
2023-03-22T06:37:25.014Z,10.29
2023-03-22T06:40:28.034Z,10.26
2023-03-22T06:43:30.829Z,10.33
2023-03-22T06:46:34.923Z,10.40
2023-03-22T06:49:37.682Z,10.33
2023-03-22T06:52:40.558Z,10.39
2023-03-22T06:55:43.305Z,10.48
2023-03-22T06:58:46.193Z,10.41
2023-03-22T07:01:50.391Z,10.50
2023-03-22T07:04:53.215Z,10.62
2023-03-22T07:07:55.979Z,10.68
2023-03-22T07:10:58.886Z,10.62
2023-03-22T07:14:01.609Z,10.79
2023-03-22T07:17:05.865Z,10.87
2023-03-22T07:20:09.912Z,10.96
2023-03-22T07:23:12.825Z,10.85
2023-03-22T07:26:15.786Z,11.04
2023-03-22T07:29:18.475Z,11.02
2023-03-22T07:32:22.609Z,11.11
2023-03-22T07:35:26.959Z,11.28
2023-03-22T07:38:29.806Z,11.29
2023-03-22T07:41:32.768Z,11.38
2023-03-22T07:44:36.966Z,11.57
2023-03-22T07:47:41.682Z,11.50
2023-03-22T07:50:44.510Z,11.79
2023-03-22T07:53:47.229Z,11.98
2023-03-22T07:56:50.282Z,12.09
2023-03-22T07:59:52.980Z,12.38
2023-03-22T08:02:57.198Z,12.34
2023-03-22T08:06:03.761Z,12.44
2023-03-22T08:09:08.343Z,12.72
2023-03-22T08:12:11.193Z,12.91
2023-03-22T08:15:14.116Z,12.97
2023-03-22T08:18:18.360Z,12.90
2023-03-22T08:21:21.297Z,12.83
2023-03-22T08:24:24.147Z,12.95
2023-03-22T08:27:27.327Z,12.89
2023-03-22T08:30:30.185Z,12.92
2023-03-22T08:33:34.608Z,12.94
2023-03-22T08:36:38.533Z,13.02
2023-03-22T08:39:41.715Z,13.07
2023-03-22T08:42:46.413Z,13.35
2023-03-22T08:45:49.270Z,13.23
2023-03-22T08:48:53.853Z,13.33
2023-03-22T08:51:57.601Z,13.38
2023-03-22T08:55:01.104Z,13.65
2023-03-22T08:58:04.686Z,13.55
2023-03-22T09:01:07.817Z,13.63
2023-03-22T09:04:12.023Z,13.75
2023-03-22T09:07:15.093Z,13.87
2023-03-22T09:10:17.983Z,14.07
2023-03-22T09:13:21.333Z,14.12
2023-03-22T09:16:24.353Z,14.50
2023-03-22T09:19:28.990Z,14.52
2023-03-22T09:22:32.110Z,14.72
2023-03-22T09:25:34.901Z,14.86
2023-03-22T09:28:38.215Z,15.03
2023-03-22T09:31:41.113Z,14.97
2023-03-22T09:34:45.695Z,15.19
2023-03-22T09:37:49.642Z,15.28
2023-03-22T09:41:00.447Z,15.42
2023-03-22T09:44:06.522Z,15.57
2023-03-22T09:47:16.506Z,15.81
2023-03-22T09:50:24.312Z,15.93
2023-03-22T09:53:29.237Z,16.29
2023-03-22T09:56:33.144Z,16.67
2023-03-22T09:59:43.674Z,16.82
2023-03-22T10:02:58.999Z,16.89
2023-03-22T10:06:06.136Z,17.13
2023-03-22T10:09:14.984Z,17.01
2023-03-22T10:12:24.654Z,16.72
2023-03-22T10:15:33.195Z,16.59
2023-03-22T10:18:39.333Z,16.60
2023-03-22T10:25:07.115Z,17.03
2023-03-22T10:28:19.584Z,16.99
2023-03-22T10:31:22.705Z,17.04
2023-03-22T10:34:31.130Z,17.13
2023-03-22T10:37:37.562Z,17.14
2023-03-22T10:40:41.535Z,17.13
2023-03-22T10:43:46.845Z,16.87
2023-03-22T10:46:51.973Z,16.99
2023-03-22T10:49:58.290Z,16.96
2023-03-22T10:53:07.199Z,17.00
2023-03-22T10:56:14.053Z,16.97
2023-03-22T10:59:48.339Z,17.10
2023-03-22T11:02:54.195Z,17.12
2023-03-22T11:06:02.840Z,17.40
2023-03-22T11:09:13.627Z,17.69
2023-03-22T11:12:17.102Z,17.80
2023-03-22T11:15:29.940Z,17.59
2023-03-22T11:18:34.764Z,17.49
2023-03-22T11:21:37.469Z,17.62
2023-03-22T11:24:41.774Z,17.49
2023-03-22T11:27:52.128Z,17.58
2023-03-22T11:31:07.261Z,18.05
2023-03-22T11:34:18.398Z,18.23
2023-03-22T11:37:23.058Z,18.43
2023-03-22T11:40:29.302Z,18.34
2023-03-22T11:43:38.499Z,18.75
2023-03-22T11:46:50.341Z,18.81
2023-03-22T11:49:55.344Z,19.22
2023-03-22T11:52:58.501Z,19.69
2023-03-22T11:56:07.575Z,20.14
2023-03-22T11:59:15.266Z,20.43
2023-03-22T12:02:24.554Z,20.35
2023-03-22T12:05:30.057Z,20.08
2023-03-22T12:08:42.654Z,20.16
2023-03-22T12:11:50.675Z,20.51
2023-03-22T12:14:58.438Z,20.42
2023-03-22T12:18:08.165Z,20.55
2023-03-22T12:21:11.917Z,20.36
2023-03-22T12:24:26.796Z,20.30
2023-03-22T12:27:35.267Z,20.32
2023-03-22T12:30:44.051Z,20.15
2023-03-22T12:33:50.261Z,20.21
2023-03-22T12:36:57.107Z,20.10
2023-03-22T12:40:05.728Z,20.35
2023-03-22T12:43:17.011Z,20.27
2023-03-22T12:46:23.740Z,20.28
2023-03-22T12:49:32.520Z,19.97
2023-03-22T12:52:45.771Z,19.95
2023-03-22T12:55:50.626Z,20.25
2023-03-22T12:58:58.348Z,20.14
2023-03-22T13:02:06.081Z,19.80
2023-03-22T13:05:12.235Z,20.06
2023-03-22T13:08:21.873Z,20.19
2023-03-22T13:11:25.561Z,20.09
2023-03-22T13:14:57.823Z,19.64
2023-03-22T13:18:00.567Z,19.53
2023-03-22T13:21:14.945Z,19.49
2023-03-22T13:24:23.695Z,19.41
2023-03-22T13:27:37.839Z,19.28
2023-03-22T13:30:52.711Z,19.43
2023-03-22T13:33:56.594Z,19.24
2023-03-22T13:37:03.686Z,19.07
2023-03-22T13:40:15.202Z,18.81
2023-03-22T13:43:30.333Z,18.77
2023-03-22T13:46:51.517Z,18.72
2023-03-22T13:50:01.346Z,18.80
2023-03-22T13:53:08.072Z,18.55
2023-03-22T13:56:14.378Z,18.81
2023-03-22T13:59:21.838Z,19.15
2023-03-22T14:02:30.148Z,19.08
2023-03-22T14:05:37.410Z,19.42
2023-03-22T14:08:42.900Z,19.26
2023-03-22T14:11:49.981Z,19.30
2023-03-22T14:14:57.995Z,18.96
2023-03-22T14:18:07.364Z,19.00
2023-03-22T14:21:15.344Z,19.05
